ACY weather

Atlantic City International Airport
Atlantic City, New Jersey, United States

Public forecast

Using degrees Fahrenheit for public forecast. Weather courtesy of forecast.io.

Current aviation weather report (METAR) for Atlantic City International Airport

Retrieved 2020/02/27 19:54 UTC (58 minutes ago):

KACY 271954Z 28016G39KT 10SM FEW065 08/M08 A2969 RMK AO2 PK WND 28039/1945 SLP053 T00781078

Aviation forecast (TAF) for Atlantic City International Airport

Retrieved 2020/02/27 18:26 UTC (2 hours ago):

TAF KACY 271720Z 2718/2818 28024G37KT P6SM SCT050 FM272300 27015G24KT P6SM SCT045 FM280400 26014KT P6SM BKN045 FM281500 26015G22KT P6SM BKN050